createdAt,value
2019-02-07T06:34:47.009Z,24.63
2019-02-07T06:40:22.774Z,24.95
2019-02-07T06:45:55.402Z,25.60
2019-02-07T06:51:13.655Z,25.00
2019-02-07T06:56:43.486Z,23.30
2019-02-07T07:02:06.741Z,23.77
2019-02-07T07:07:30.398Z,24.60
2019-02-07T07:12:46.995Z,23.70
2019-02-07T07:18:16.225Z,22.77
2019-02-07T07:23:54.886Z,23.80
2019-02-07T07:29:12.307Z,23.60
2019-02-07T07:34:34.444Z,23.20
2019-02-07T07:40:00.393Z,23.97
2019-02-07T07:45:14.842Z,25.20
2019-02-07T07:50:40.869Z,25.72
2019-02-07T07:55:57.432Z,22.85
2019-02-07T08:41:26.632Z,25.55
2019-02-07T09:03:30.090Z,26.50
2019-02-07T09:08:46.351Z,27.63
2019-02-07T09:14:15.698Z,27.10
2019-02-07T09:19:37.787Z,26.93
2019-02-07T09:25:22.207Z,27.25
2019-02-07T09:30:44.098Z,28.47
2019-02-07T09:36:05.260Z,28.30
2019-02-07T09:58:54.328Z,29.10
2019-02-07T10:04:20.477Z,29.63
2019-02-07T10:09:48.751Z,28.85
2019-02-07T10:15:10.698Z,29.30
2019-02-07T10:20:32.449Z,30.00
2019-02-07T10:25:53.399Z,30.92
2019-02-07T10:31:31.750Z,30.50
2019-02-07T10:36:47.180Z,30.68
2019-02-07T10:41:58.271Z,30.00
2019-02-07T10:47:36.905Z,31.07
2019-02-07T10:53:01.621Z,32.73
2019-02-07T10:58:28.027Z,33.42
2019-02-07T11:03:50.300Z,32.43
2019-02-07T11:09:31.804Z,30.32
2019-02-07T11:14:53.902Z,31.20
2019-02-07T11:20:14.772Z,31.57
2019-02-07T11:25:44.074Z,30.95
2019-02-07T11:31:02.527Z,27.82
2019-02-07T11:36:30.862Z,28.95
2019-02-07T11:41:44.513Z,27.17
2019-02-07T11:47:15.314Z,29.20
2019-02-07T11:52:32.378Z,30.08
2019-02-07T11:57:57.526Z,29.43
2019-02-07T12:03:39.159Z,29.10
2019-02-07T12:08:53.668Z,29.15
2019-02-07T12:14:16.814Z,29.00
2019-02-07T12:19:43.984Z,30.15
2019-02-07T12:25:19.216Z,28.45
2019-02-07T12:30:41.215Z,29.73
2019-02-07T12:36:02.334Z,26.55
2019-02-07T12:41:32.548Z,27.98
2019-02-07T12:46:55.019Z,29.42
2019-02-07T12:52:14.653Z,29.33
2019-02-07T19:59:40.553Z,11.48
2019-02-07T20:04:44.978Z,11.70
2019-02-07T20:09:49.326Z,11.80
2019-02-07T20:14:53.685Z,10.40
2019-02-07T20:19:59.794Z,10.35
2019-02-07T20:25:36.596Z,10.23
2019-02-07T20:30:44.263Z,10.53
2019-02-07T20:36:07.209Z,9.83
2019-02-07T20:41:11.705Z,9.35
2019-02-07T20:46:16.823Z,10.00
2019-02-07T20:51:23.771Z,9.53
2019-02-07T20:56:28.420Z,9.98
2019-02-07T21:01:33.664Z,9.70
2019-02-07T21:06:57.777Z,9.90
2019-02-07T21:17:21.379Z,8.77
2019-02-07T21:35:55.559Z,8.50
2019-02-07T21:53:35.977Z,9.93
2019-02-07T21:58:51.063Z,8.07
2019-02-07T22:04:11.692Z,8.75
2019-02-07T22:09:15.351Z,8.93
2019-02-07T22:14:25.653Z,7.47
2019-02-07T22:32:24.439Z,9.20
2019-02-07T22:37:31.409Z,10.25
2019-02-07T22:42:47.761Z,8.23
2019-02-07T22:47:56.052Z,8.10
2019-02-07T22:53:04.303Z,7.10
2019-02-07T23:05:05.351Z,7.23
2019-02-07T23:10:14.257Z,6.93
2019-02-07T23:15:23.478Z,6.50
2019-02-07T23:20:38.805Z,6.90
2019-02-07T23:25:46.572Z,6.40
2019-02-07T23:30:51.540Z,6.25
2019-02-07T23:35:55.864Z,6.58
2019-02-07T23:41:00.467Z,6.45
2019-02-07T23:46:05.279Z,5.80
2019-02-07T23:51:09.646Z,5.90
2019-02-07T23:56:14.275Z,5.58
